Аэропорт: Храброво. Калининград

ICAO: UMKK

METAR:
2019-11-21 09:00:00
UMKK 210900Z 12007MPS 9999 OVC012 06/04 Q1023 R06/95D NOSIG RMK QFE766/1021
METAR:
2019-11-21 07:57:00
TAF UMKK 210757Z 2109/2209 11007G12MPS 9999 OVC011 BECMG 2114/2116 12008G15MPS SCT011 BKN020 TEMPO 2118/2206 3100 -SHRA SCT015CB